Time;durP1;ratioP1;P1;durP2;ratioP2;P2;SDS_P1;SDS_P2;PMS_P1;PMS_P2;Temp;Humidity;BMP_temperature;BMP_pressure;BME280_temperature;BME280_humidity;BME280_pressure;Samples;Min_cycle;Max_cycle;Signal;HPM_P1;HPM_P2
2023/07/04 03:02:00;;;;;;;1.45;1.05;;;24.30;45.40;;;;;;5264436;23;47990;-63
2023/07/04 03:04:25;;;;;;;3.88;1.30;;;24.30;45.20;;;;;;4971055;28;45115;-62
2023/07/04 03:06:51;;;;;;;1.65;1.20;;;24.30;45.20;;;;;;4952663;28;45372;-63
2023/07/04 03:09:17;;;;;;;1.80;1.10;;;24.30;45.30;;;;;;4973945;28;45446;-62
2023/07/04 03:11:42;;;;;;;1.63;1.00;;;24.30;45.30;;;;;;4948015;28;45940;-63
2023/07/04 03:14:08;;;;;;;2.50;1.17;;;24.30;45.30;;;;;;4976409;28;46585;-63
2023/07/04 03:16:33;;;;;;;2.08;1.23;;;24.30;45.20;;;;;;4960959;28;45544;-64
2023/07/04 03:18:59;;;;;;;1.05;0.80;;;24.30;45.20;;;;;;4971078;28;45265;-65
2023/07/04 03:21:24;;;;;;;2.08;1.23;;;24.30;45.20;;;;;;4961451;28;45340;-63
2023/07/04 03:23:50;;;;;;;1.58;0.95;;;24.30;45.80;;;;;;4969228;28;45435;-63
2023/07/04 03:26:17;;;;;;;2.55;1.50;;;24.30;45.20;;;;;;4961147;28;45358;-64
2023/07/04 03:28:42;;;;;;;2.88;1.30;;;24.30;45.20;;;;;;4965120;28;45175;-63
2023/07/04 03:31:08;;;;;;;1.20;0.95;;;24.30;45.30;;;;;;4967140;28;45595;-63
2023/07/04 03:33:33;;;;;;;1.50;1.08;;;24.30;45.30;;;;;;4968588;28;45032;-62
2023/07/04 03:35:59;;;;;;;1.50;0.90;;;24.30;45.40;;;;;;4966663;28;46015;-62
2023/07/04 03:38:25;;;;;;;1.45;0.95;;;24.30;45.40;;;;;;4970292;28;45774;-62
2023/07/04 03:40:50;;;;;;;1.77;1.10;;;24.30;45.40;;;;;;4964520;28;45400;-63
2023/07/04 03:43:16;;;;;;;3.50;1.25;;;24.20;45.40;;;;;;4972772;28;45286;-63
2023/07/04 03:45:44;;;;;;;1.08;0.88;;;24.20;45.50;;;;;;4962792;28;45449;-63
2023/07/04 03:48:10;;;;;;;1.23;0.90;;;24.20;45.60;;;;;;4952179;28;45765;-63
2023/07/04 03:50:37;;;;;;;2.40;1.25;;;24.20;45.50;;;;;;4967374;28;45675;-65
2023/07/04 03:53:02;;;;;;;1.50;1.10;;;24.20;45.60;;;;;;4972936;28;45406;-63
2023/07/04 03:55:28;;;;;;;2.20;1.25;;;24.20;45.60;;;;;;4966412;28;46239;-63
2023/07/04 03:57:53;;;;;;;2.97;1.15;;;24.20;45.70;;;;;;4969022;28;45056;-64
2023/07/04 04:00:19;;;;;;;2.15;1.20;;;24.20;45.80;;;;;;4944585;28;45016;-65
2023/07/04 04:02:45;;;;;;;2.40;1.50;;;24.20;45.80;;;;;;4948477;28;45695;-62
2023/07/04 04:05:11;;;;;;;2.30;1.27;;;24.20;45.90;;;;;;4965911;28;45021;-62
2023/07/04 04:07:37;;;;;;;1.83;1.08;;;24.20;45.90;;;;;;4967259;28;45046;-63
2023/07/04 04:10:06;;;;;;;1.42;0.93;;;24.20;45.90;;;;;;4969493;28;45331;-62
2023/07/04 04:12:32;;;;;;;1.45;0.82;;;24.20;46.20;;;;;;4966368;28;45796;-63
2023/07/04 04:14:57;;;;;;;1.80;1.10;;;24.10;46.10;;;;;;4969022;28;45675;-63
2023/07/04 04:17:23;;;;;;;1.42;0.98;;;24.20;46.20;;;;;;4961375;28;45303;-64
2023/07/04 04:19:48;;;;;;;2.25;1.30;;;24.10;46.20;;;;;;4969338;28;44930;-63
2023/07/04 04:22:15;;;;;;;3.72;1.33;;;24.10;46.30;;;;;;4961030;28;45254;-63
2023/07/04 04:24:40;;;;;;;1.65;1.33;;;24.10;46.30;;;;;;4935192;28;47429;-63
2023/07/04 04:27:08;;;;;;;3.05;1.25;;;24.20;46.30;;;;;;4943396;28;45509;-65
2023/07/04 04:29:35;;;;;;;2.42;1.25;;;24.20;46.30;;;;;;4953934;28;44973;-63
2023/07/04 04:32:00;;;;;;;1.52;1.15;;;24.20;46.60;;;;;;4941764;28;45755;-63
2023/07/04 04:34:26;;;;;;;1.70;0.90;;;24.20;46.40;;;;;;4971410;28;45937;-64
2023/07/04 04:36:52;;;;;;;1.70;0.90;;;24.20;46.40;;;;;;4964492;28;45605;-63
2023/07/04 04:39:17;;;;;;;1.17;0.90;;;24.20;46.40;;;;;;4968868;28;45402;-63
2023/07/04 04:41:43;;;;;;;1.55;1.17;;;24.20;46.40;;;;;;4957940;28;45380;-63
2023/07/04 04:44:09;;;;;;;2.22;1.00;;;24.20;46.40;;;;;;4963579;28;46445;-63
2023/07/04 04:46:34;;;;;;;3.58;1.05;;;24.20;46.60;;;;;;4956647;28;45217;-64
2023/07/04 04:49:03;;;;;;;1.75;1.08;;;24.20;46.60;;;;;;4934032;28;45547;-64
2023/07/04 04:51:29;;;;;;;3.20;1.40;;;24.20;46.60;;;;;;4931313;28;45789;-63
2023/07/04 04:53:55;;;;;;;1.73;1.00;;;24.20;46.60;;;;;;4934573;28;45359;-63
2023/07/04 04:56:20;;;;;;;2.95;1.23;;;24.20;46.60;;;;;;4945934;28;45238;-63
2023/07/04 04:58:46;;;;;;;2.00;0.95;;;24.20;46.60;;;;;;4952059;28;45431;-63
2023/07/04 05:01:16;;;;;;;1.58;0.98;;;24.20;46.70;;;;;;4959062;28;45560;-63
2023/07/04 05:03:45;;;;;;;1.27;1.08;;;24.20;46.70;;;;;;4965671;28;45102;-63
2023/07/04 05:06:11;;;;;;;1.38;0.98;;;24.20;46.70;;;;;;4964114;28;45207;-64
2023/07/04 05:08:37;;;;;;;1.98;1.33;;;24.20;46.70;;;;;;4951648;28;45231;-64
2023/07/04 05:11:07;;;;;;;1.10;0.90;;;24.20;46.60;;;;;;4943802;28;46060;-64
2023/07/04 05:13:37;;;;;;;2.10;1.10;;;24.20;46.70;;;;;;4972561;28;45632;-64
2023/07/04 05:16:04;;;;;;;1.70;1.20;;;24.30;46.80;;;;;;4945863;28;45702;-64
2023/07/04 05:18:32;;;;;;;3.22;1.10;;;24.30;46.70;;;;;;4950083;28;45655;-64
2023/07/04 05:21:06;;;;;;;1.30;1.00;;;24.30;46.70;;;;;;4965425;28;45606;-64
2023/07/04 05:23:33;;;;;;;1.88;1.13;;;24.30;46.90;;;;;;4953996;28;45622;-64
2023/07/04 05:26:09;;;;;;;3.42;1.23;;;24.30;46.70;;;;;;4962964;28;45539;-64
2023/07/04 05:28:35;;;;;;;4.25;1.35;;;24.30;46.70;;;;;;4971013;28;45691;-64
2023/07/04 05:31:08;;;;;;;1.95;1.17;;;24.30;46.50;;;;;;4959344;28;45423;-63
2023/07/04 05:33:34;;;;;;;1.92;1.25;;;24.30;46.70;;;;;;4966557;28;46505;-63
2023/07/04 05:36:18;;;;;;;2.45;1.20;;;24.30;46.60;;;;;;4966260;28;45418;-62
2023/07/04 05:38:46;;;;;;;3.15;1.10;;;24.40;47.00;;;;;;4963273;28;45735;-62
2023/07/04 05:41:13;;;;;;;2.55;1.30;;;24.30;46.50;;;;;;4964508;28;45556;-61
2023/07/04 05:43:38;;;;;;;1.40;1.20;;;24.40;46.60;;;;;;4969827;28;45983;-60
2023/07/04 05:46:05;;;;;;;2.78;1.15;;;24.40;46.60;;;;;;4944345;28;45303;-62
2023/07/04 05:48:30;;;;;;;1.02;0.90;;;24.40;46.50;;;;;;4968580;28;45250;-62
2023/07/04 05:50:58;;;;;;;1.50;1.05;;;24.40;46.30;;;;;;4964753;28;45594;-61
2023/07/04 05:53:26;;;;;;;3.92;1.05;;;24.40;46.30;;;;;;4989289;28;45556;-62
2023/07/04 05:55:52;;;;;;;1.50;1.10;;;24.40;46.20;;;;;;4965568;28;45749;-61
2023/07/04 05:58:18;;;;;;;2.17;1.33;;;24.40;46.20;;;;;;4936271;28;45546;-62
2023/07/04 06:00:45;;;;;;;3.17;1.35;;;24.40;46.20;;;;;;4959998;28;45475;-62
2023/07/04 06:03:10;;;;;;;2.08;1.08;;;24.50;46.20;;;;;;4971721;28;45203;-62
2023/07/04 06:05:38;;;;;;;4.03;1.63;;;24.50;46.10;;;;;;4964801;28;45267;-62
2023/07/04 06:08:04;;;;;;;2.03;1.27;;;24.60;46.20;;;;;;4968900;28;45016;-61
2023/07/04 06:10:29;;;;;;;2.03;1.25;;;24.60;46.00;;;;;;4964480;28;45481;-62
2023/07/04 06:12:55;;;;;;;2.38;1.17;;;24.60;45.90;;;;;;4970999;28;45160;-62
2023/07/04 06:15:20;;;;;;;2.05;1.05;;;24.60;45.90;;;;;;4963734;28;45419;-62
2023/07/04 06:17:46;;;;;;;2.47;1.25;;;24.60;45.90;;;;;;4967244;28;45304;-62
2023/07/04 06:20:14;;;;;;;2.78;1.25;;;24.60;45.80;;;;;;4964218;28;45527;-62
2023/07/04 06:22:40;;;;;;;2.80;1.58;;;24.60;45.70;;;;;;4971150;28;46266;-60
2023/07/04 06:25:07;;;;;;;3.53;1.25;;;24.70;45.70;;;;;;4969835;28;44921;-62
2023/07/04 06:27:33;;;;;;;3.38;1.60;;;24.70;45.50;;;;;;4953705;28;45230;-61
2023/07/04 06:29:59;;;;;;;3.63;1.25;;;24.70;45.40;;;;;;4969591;28;46119;-62
2023/07/04 06:32:24;;;;;;;2.40;1.65;;;24.70;45.30;;;;;;4957524;28;45331;-61
2023/07/04 06:34:50;;;;;;;4.60;1.70;;;24.80;45.30;;;;;;4968747;28;44983;-62
2023/07/04 06:37:15;;;;;;;3.85;1.70;;;24.80;45.70;;;;;;4964360;28;45543;-61
2023/07/04 06:39:42;;;;;;;4.07;1.52;;;24.80;45.00;;;;;;4972326;28;46943;-59
2023/07/04 06:42:07;;;;;;;4.18;1.40;;;24.80;44.80;;;;;;4964593;28;47060;-61
2023/07/04 06:44:33;;;;;;;2.97;1.77;;;24.80;44.80;;;;;;4971620;28;45640;-61
2023/07/04 06:46:58;;;;;;;3.25;1.80;;;24.80;44.70;;;;;;4961036;28;44826;-62
2023/07/04 06:49:24;;;;;;;4.47;2.03;;;24.80;44.50;;;;;;4968343;28;45192;-62
2023/07/04 06:51:49;;;;;;;3.85;1.80;;;24.80;44.50;;;;;;4967831;28;46117;-62
2023/07/04 06:54:15;;;;;;;5.30;2.15;;;24.80;44.40;;;;;;4973425;28;45534;-61
2023/07/04 06:56:40;;;;;;;3.55;1.80;;;24.90;44.30;;;;;;4948507;28;45335;-61
2023/07/04 06:59:06;;;;;;;4.13;2.08;;;24.90;44.30;;;;;;4951811;28;45783;-61
2023/07/04 07:01:32;;;;;;;5.55;2.40;;;24.90;44.20;;;;;;4961057;28;46021;-61
2023/07/04 07:03:58;;;;;;;5.72;2.05;;;24.90;44.10;;;;;;4970932;28;45100;-61
2023/07/04 07:06:24;;;;;;;5.07;2.22;;;25.00;44.00;;;;;;4966951;28;45257;-62
2023/07/04 07:08:49;;;;;;;7.32;2.40;;;24.90;43.90;;;;;;4971105;28;46367;-61
2023/07/04 07:11:16;;;;;;;4.75;1.92;;;25.00;43.60;;;;;;4964298;28;46143;-61
2023/07/04 07:13:42;;;;;;;6.07;2.45;;;25.00;43.60;;;;;;4969711;28;45735;-63
2023/07/04 07:16:08;;;;;;;5.13;2.20;;;24.90;43.50;;;;;;4962780;28;45062;-61
2023/07/04 07:18:34;;;;;;;5.10;2.03;;;24.90;43.50;;;;;;4967507;28;45229;-62
2023/07/04 07:21:01;;;;;;;5.30;2.50;;;24.90;43.40;;;;;;4960977;28;46183;-62
2023/07/04 07:23:27;;;;;;;5.72;2.60;;;25.00;43.40;;;;;;4969581;28;45468;-61
2023/07/04 07:25:56;;;;;;;6.43;2.50;;;25.00;43.30;;;;;;4959947;28;44762;-62
2023/07/04 07:28:26;;;;;;;5.13;2.45;;;25.00;43.00;;;;;;4969268;28;44927;-62
2023/07/04 07:31:04;;;;;;;8.35;2.42;;;25.00;42.80;;;;;;4954705;28;45221;-61
2023/07/04 07:33:31;;;;;;;6.90;2.80;;;25.00;42.50;;;;;;4968642;28;45356;-62
2023/07/04 07:35:56;;;;;;;6.75;2.60;;;25.00;42.50;;;;;;4962560;28;44766;-61
2023/07/04 07:38:22;;;;;;;6.35;2.97;;;25.00;42.30;;;;;;4968688;28;45411;-62
2023/07/04 07:40:51;;;;;;;4.05;2.55;;;25.00;42.10;;;;;;4963297;28;45277;-60
2023/07/04 07:43:17;;;;;;;6.68;2.75;;;25.00;41.90;;;;;;4970200;28;45431;-62
2023/07/04 07:45:43;;;;;;;7.82;2.90;;;25.00;41.90;;;;;;4964246;28;45518;-61
2023/07/04 07:48:09;;;;;;;7.47;2.55;;;25.00;41.70;;;;;;4964462;28;45561;-60
2023/07/04 07:50:34;;;;;;;8.65;2.78;;;25.00;41.70;;;;;;4965348;28;45289;-62
2023/07/04 07:53:00;;;;;;;6.53;2.85;;;25.10;41.70;;;;;;4971409;28;45215;-61
2023/07/04 07:55:25;;;;;;;6.38;2.83;;;25.00;41.70;;;;;;4968299;28;45581;-63
2023/07/04 07:57:51;;;;;;;7.85;3.00;;;25.10;42.20;;;;;;4954182;28;45351;-62
2023/07/04 08:00:17;;;;;;;7.82;2.42;;;25.10;41.60;;;;;;4965040;28;45352;-63
2023/07/04 08:02:42;;;;;;;6.82;2.70;;;25.10;41.60;;;;;;4953008;28;45303;-63
2023/07/04 08:05:08;;;;;;;7.15;2.97;;;25.10;41.60;;;;;;4967369;28;44947;-63
2023/07/04 08:07:34;;;;;;;11.75;3.35;;;25.10;41.50;;;;;;4953917;28;46191;-63
2023/07/04 08:09:59;;;;;;;5.72;2.80;;;25.10;41.60;;;;;;4972202;28;45425;-62
2023/07/04 08:12:25;;;;;;;8.82;3.00;;;25.10;41.50;;;;;;4968267;28;45413;-63
2023/07/04 08:14:51;;;;;;;5.07;2.28;;;25.10;41.40;;;;;;4974907;28;45566;-63
2023/07/04 08:17:16;;;;;;;7.80;3.33;;;25.20;41.40;;;;;;4962224;28;45259;-62
2023/07/04 08:19:42;;;;;;;5.97;2.70;;;25.20;41.50;;;;;;4968078;28;45267;-62
2023/07/04 08:22:07;;;;;;;9.57;2.92;;;25.20;41.40;;;;;;4966217;28;45855;-61
2023/07/04 08:24:33;;;;;;;6.22;2.63;;;25.20;41.30;;;;;;4973498;28;45133;-62
2023/07/04 08:26:58;;;;;;;10.13;3.30;;;25.20;41.30;;;;;;4951058;28;46213;-63
2023/07/04 08:29:24;;;;;;;7.25;3.35;;;25.20;41.90;;;;;;4972551;28;46105;-62
2023/07/04 08:31:50;;;;;;;5.70;3.05;;;25.20;41.10;;;;;;4963742;28;45506;-62
2023/07/04 08:34:15;;;;;;;5.50;3.20;;;25.20;40.80;;;;;;4955937;28;45285;-62
2023/07/04 08:36:44;;;;;;;7.63;3.40;;;25.30;40.90;;;;;;4967495;28;45005;-62
2023/07/04 08:39:09;;;;;;;7.85;3.50;;;25.30;40.80;;;;;;4964507;28;46263;-62
2023/07/04 08:41:45;;;;;;;7.47;3.63;;;25.30;40.70;;;;;;4969115;28;45356;-63
2023/07/04 08:44:12;;;;;;;7.72;3.53;;;25.30;40.40;;;;;;4970995;28;44987;-63
2023/07/04 08:46:44;;;;;;;7.13;3.60;;;25.30;40.50;;;;;;4963753;28;45369;-61
2023/07/04 08:49:27;;;;;;;7.80;3.38;;;25.40;40.50;;;;;;4967562;28;47209;-61
2023/07/04 08:51:57;;;;;;;7.28;3.70;;;25.40;40.30;;;;;;4967547;28;45396;-62
2023/07/04 08:54:22;;;;;;;5.43;3.33;;;25.40;40.40;;;;;;4971041;28;44885;-62
2023/07/04 08:56:48;;;;;;;6.82;4.13;;;25.40;40.40;;;;;;4968212;28;45474;-61
2023/07/04 08:59:21;;;;;;;9.05;4.10;;;25.40;40.20;;;;;;4969338;28;45355;-60
2023/07/04 09:01:52;;;;;;;7.68;4.47;;;25.50;40.00;;;;;;4944172;28;44927;-60
2023/07/04 09:04:58;;;;;;;7.28;4.45;;;25.40;39.70;;;;;;4971414;28;45293;-61
2023/07/04 09:07:32;;;;;;;9.10;4.75;;;25.50;39.40;;;;;;4967967;28;44967;-61
2023/07/04 09:10:35;;;;;;;7.47;4.82;;;25.50;39.60;;;;;;4968152;28;45738;-61
2023/07/04 09:13:02;;;;;;;11.20;4.85;;;25.50;39.20;;;;;;4968536;28;46632;-61
2023/07/04 09:15:31;;;;;;;10.48;5.30;;;25.50;39.50;;;;;;4956462;28;45350;-61
2023/07/04 09:18:08;;;;;;;13.85;5.20;;;25.50;39.30;;;;;;4984740;28;45067;-61
2023/07/04 09:20:47;;;;;;;8.75;5.25;;;25.50;39.30;;;;;;4967238;28;45630;-61
2023/07/04 09:23:22;;;;;;;11.13;5.35;;;25.50;39.10;;;;;;4970449;28;46144;-61
2023/07/04 09:25:47;;;;;;;10.18;5.32;;;25.60;39.10;;;;;;4958440;28;45804;-60
2023/07/04 09:28:13;;;;;;;10.98;5.53;;;25.60;39.10;;;;;;4969150;28;45388;-61
2023/07/04 09:30:38;;;;;;;11.80;5.40;;;25.60;39.10;;;;;;4961677;28;45970;-59
2023/07/04 09:33:04;;;;;;;11.25;5.53;;;25.60;39.00;;;;;;4959290;28;45194;-59
2023/07/04 09:35:31;;;;;;;12.07;5.80;;;25.70;39.00;;;;;;4962240;28;45152;-62
2023/07/04 09:38:00;;;;;;;9.70;5.90;;;25.70;38.90;;;;;;4969467;28;45378;-62
2023/07/04 09:40:45;;;;;;;8.70;5.97;;;25.70;38.70;;;;;;4963491;28;46980;-63
2023/07/04 09:43:11;;;;;;;9.18;5.78;;;25.70;38.30;;;;;;4966080;28;45705;-61
2023/07/04 09:45:37;;;;;;;13.65;5.85;;;25.70;38.70;;;;;;4943855;28;45660;-62
2023/07/04 09:48:04;;;;;;;10.35;5.47;;;25.80;38.80;;;;;;4968278;28;44965;-61
2023/07/04 09:50:31;;;;;;;7.50;4.55;;;25.80;39.00;;;;;;4947020;28;46009;-60
2023/07/04 09:53:04;;;;;;;11.77;5.72;;;25.80;39.00;;;;;;4952346;28;45560;-61
2023/07/04 09:55:30;;;;;;;10.02;5.95;;;25.80;38.80;;;;;;4964051;28;45096;-61
2023/07/04 09:58:36;;;;;;;12.07;6.05;;;25.80;38.80;;;;;;4970071;28;46156;-60
2023/07/04 10:01:11;;;;;;;10.45;5.88;;;25.90;38.30;;;;;;4912075;28;46047;-61
2023/07/04 10:03:40;;;;;;;9.75;5.38;;;25.90;38.50;;;;;;4893789;28;45605;-60
2023/07/04 10:06:06;;;;;;;10.75;5.65;;;25.90;38.60;;;;;;4925852;28;45166;-60
2023/07/04 10:08:33;;;;;;;11.07;5.65;;;25.90;38.60;;;;;;4968207;28;45584;-59
2023/07/04 10:10:59;;;;;;;11.73;5.97;;;26.00;38.50;;;;;;4956571;28;46013;-60
2023/07/04 10:13:38;;;;;;;11.02;6.30;;;26.00;38.30;;;;;;4964781;28;45440;-61
2023/07/04 10:16:22;;;;;;;10.63;6.63;;;26.10;37.60;;;;;;4960436;28;44986;-62
2023/07/04 10:18:48;;;;;;;10.18;6.25;;;26.10;37.30;;;;;;4967567;28;45314;-62
2023/07/04 10:21:13;;;;;;;9.18;6.35;;;26.10;37.80;;;;;;4965756;28;45066;-59
2023/07/04 10:23:39;;;;;;;10.23;6.60;;;26.10;37.70;;;;;;4971017;28;46305;-60
2023/07/04 10:26:05;;;;;;;12.07;6.20;;;26.10;37.70;;;;;;4965784;28;45235;-61
2023/07/04 10:28:30;;;;;;;9.52;6.18;;;26.10;37.60;;;;;;4964702;28;44765;-63
2023/07/04 10:31:11;;;;;;;11.43;6.60;;;26.10;37.50;;;;;;4942943;28;45547;-61
2023/07/04 10:33:56;;;;;;;11.38;6.60;;;26.10;37.30;;;;;;4987994;28;45512;-61
2023/07/04 10:36:28;;;;;;;11.23;6.80;;;26.10;37.30;;;;;;4963972;28;45648;-59
2023/07/04 10:38:54;;;;;;;11.43;7.38;;;26.20;37.00;;;;;;4973451;28;45465;-60
2023/07/04 10:41:39;;;;;;;10.32;6.80;;;26.20;37.00;;;;;;4948133;28;46203;-59
2023/07/04 10:44:23;;;;;;;11.25;6.82;;;26.20;36.30;;;;;;4972476;28;45565;-60
2023/07/04 10:47:02;;;;;;;11.48;6.47;;;26.20;36.00;;;;;;4960796;28;46556;-61
2023/07/04 10:49:41;;;;;;;10.90;6.43;;;26.20;36.60;;;;;;4959348;28;45407;-60
2023/07/04 10:52:13;;;;;;;13.63;6.65;;;26.20;36.00;;;;;;4930670;28;47239;-60
2023/07/04 10:54:39;;;;;;;9.25;6.15;;;26.20;36.40;;;;;;4969263;28;45227;-61
2023/07/04 10:57:20;;;;;;;9.27;6.00;;;26.20;36.50;;;;;;4966075;28;46592;-62
2023/07/04 10:59:45;;;;;;;8.40;5.63;;;26.20;36.20;;;;;;4956823;28;45554;-61
2023/07/04 11:02:26;;;;;;;8.25;5.15;;;26.20;36.30;;;;;;4954661;28;46185;-67
2023/07/04 11:04:53;;;;;;;8.65;6.00;;;26.30;36.30;;;;;;4969237;28;45997;-67
2023/07/04 11:07:20;;;;;;;10.10;5.22;;;26.30;36.40;;;;;;4966503;28;44776;-66
2023/07/04 11:09:46;;;;;;;9.82;6.00;;;26.30;36.40;;;;;;4955287;28;45367;-67
2023/07/04 11:12:15;;;;;;;11.35;5.10;;;26.30;36.50;;;;;;4952109;28;46205;-67
2023/07/04 11:14:41;;;;;;;8.45;5.55;;;26.30;36.30;;;;;;4925296;28;45389;-67
2023/07/04 11:17:12;;;;;;;8.60;5.72;;;26.30;36.20;;;;;;4959497;28;44702;-66
2023/07/04 11:20:12;;;;;;;7.10;5.32;;;26.40;36.20;;;;;;4959580;28;45073;-68
2023/07/04 11:22:51;;;;;;;10.73;5.32;;;26.40;35.70;;;;;;4967506;28;45483;-66
2023/07/04 11:25:35;;;;;;;8.43;5.43;;;26.40;35.90;;;;;;4969194;28;45561;-66
2023/07/04 11:28:14;;;;;;;8.30;5.70;;;26.40;35.30;;;;;;4975858;28;45438;-67
2023/07/04 11:30:40;;;;;;;12.05;5.13;;;26.50;35.30;;;;;;4971005;28;45290;-67
2023/07/04 11:33:07;;;;;;;7.97;5.40;;;26.50;35.80;;;;;;4955359;28;46582;-68
2023/07/04 11:35:33;;;;;;;6.03;4.70;;;26.60;35.60;;;;;;4955118;28;45284;-69
2023/07/04 11:38:05;;;;;;;9.60;4.93;;;26.50;35.60;;;;;;4973722;28;44979;-67
2023/07/04 11:40:54;;;;;;;7.47;5.15;;;26.60;35.20;;;;;;4941830;28;45541;-68
2023/07/04 11:43:32;;;;;;;6.88;4.65;;;26.60;34.60;;;;;;4974649;28;45954;-67
2023/07/04 11:45:58;;;;;;;11.13;4.90;;;26.60;34.90;;;;;;4966403;28;45442;-67
2023/07/04 11:48:28;;;;;;;8.00;4.80;;;26.70;35.20;;;;;;4955084;28;45165;-67
2023/07/04 11:51:04;;;;;;;7.40;5.20;;;26.70;35.00;;;;;;4968935;28;44657;-67
2023/07/04 11:53:52;;;;;;;7.85;5.28;;;26.70;34.70;;;;;;4967415;28;47697;-68
2023/07/04 11:56:22;;;;;;;7.90;4.80;;;26.80;34.30;;;;;;4950148;28;45332;-67
2023/07/04 11:58:49;;;;;;;11.85;4.88;;;26.80;35.00;;;;;;4973831;28;45996;-67
2023/07/04 12:01:15;;;;;;;8.43;5.22;;;26.80;34.90;;;;;;4960855;28;45712;-68
2023/07/04 12:03:53;;;;;;;8.23;4.72;;;26.80;34.70;;;;;;4966181;28;45899;-66
2023/07/04 12:06:45;;;;;;;11.35;4.72;;;26.90;33.90;;;;;;4967903;28;45753;-68
2023/07/04 12:09:14;;;;;;;7.10;4.40;;;26.90;33.70;;;;;;4960161;28;44744;-69
2023/07/04 12:11:43;;;;;;;5.65;4.50;;;27.00;34.30;;;;;;4971000;28;45457;-68
2023/07/04 12:14:10;;;;;;;6.72;4.55;;;27.00;34.20;;;;;;4960895;28;45969;-69
2023/07/04 12:16:36;;;;;;;7.20;4.45;;;27.00;34.30;;;;;;4947698;28;46674;-70
2023/07/04 12:19:04;;;;;;;10.90;4.85;;;27.00;34.20;;;;;;4971757;28;44784;-69
2023/07/04 12:21:32;;;;;;;6.68;4.60;;;27.00;34.00;;;;;;4967427;28;45330;-69
2023/07/04 12:24:03;;;;;;;7.38;4.68;;;27.00;34.10;;;;;;4976054;28;45797;-69
2023/07/04 12:26:32;;;;;;;7.50;4.35;;;27.00;33.90;;;;;;4969632;28;45002;-68
2023/07/04 12:29:00;;;;;;;5.97;4.28;;;27.10;34.00;;;;;;4976976;28;45177;-68
2023/07/04 12:31:26;;;;;;;7.40;5.00;;;27.10;33.70;;;;;;4962482;28;45387;-68
2023/07/04 12:33:51;;;;;;;9.13;4.20;;;27.10;33.80;;;;;;4972591;28;46154;-69
2023/07/04 12:36:19;;;;;;;6.25;4.18;;;27.10;33.70;;;;;;4964793;28;45568;-68
2023/07/04 12:38:45;;;;;;;10.88;5.07;;;27.20;33.70;;;;;;4970251;28;46183;-68
2023/07/04 12:41:14;;;;;;;6.95;4.57;;;27.20;33.70;;;;;;4965981;28;45297;-68
2023/07/04 12:43:40;;;;;;;5.50;4.72;;;27.20;33.50;;;;;;4973687;28;45907;-66
2023/07/04 12:46:12;;;;;;;10.38;5.18;;;27.20;33.60;;;;;;4934504;28;46465;-67
2023/07/04 12:48:38;;;;;;;7.53;4.63;;;27.30;33.30;;;;;;4970934;28;45242;-68
2023/07/04 12:51:06;;;;;;;7.20;5.13;;;27.30;33.50;;;;;;4954901;28;45262;-68
2023/07/04 12:53:32;;;;;;;5.28;4.47;;;27.30;33.40;;;;;;4956365;28;45366;-68
2023/07/04 12:55:57;;;;;;;7.85;5.53;;;27.30;33.50;;;;;;4970692;28;45271;-67
2023/07/04 12:58:26;;;;;;;10.45;5.53;;;27.40;33.50;;;;;;4948037;28;46836;-68
2023/07/04 13:00:54;;;;;;;8.35;5.38;;;27.40;33.40;;;;;;4962098;28;45101;-69
2023/07/04 13:03:20;;;;;;;6.93;5.07;;;27.40;33.00;;;;;;4970535;28;46087;-70
2023/07/04 13:05:48;;;;;;;8.65;5.32;;;27.40;33.20;;;;;;4968120;28;45186;-68
2023/07/04 13:08:22;;;;;;;6.93;5.25;;;27.40;33.10;;;;;;4954844;28;46025;-68
2023/07/04 13:10:50;;;;;;;9.73;5.53;;;27.40;32.60;;;;;;4966697;28;45368;-67
2023/07/04 13:13:36;;;;;;;8.93;5.30;;;27.40;33.50;;;;;;4959520;28;45969;-67
2023/07/04 13:16:12;;;;;;;7.45;5.18;;;27.50;32.30;;;;;;4967048;28;45318;-68
2023/07/04 13:18:39;;;;;;;7.93;5.53;;;27.50;32.30;;;;;;4976671;28;45253;-68
2023/07/04 13:21:05;;;;;;;9.93;5.70;;;27.50;32.90;;;;;;4954033;28;45813;-68
2023/07/04 13:23:35;;;;;;;9.02;5.85;;;27.50;32.90;;;;;;4947636;28;46710;-69
2023/07/04 13:26:01;;;;;;;11.00;5.07;;;27.50;32.70;;;;;;4952301;28;45340;-68
2023/07/04 13:28:32;;;;;;;10.35;5.20;;;27.60;32.90;;;;;;4975040;28;44912;-68
2023/07/04 13:31:25;;;;;;;7.50;5.10;;;27.60;32.80;;;;;;4946627;28;45199;-68
2023/07/04 13:33:56;;;;;;;6.90;4.63;;;27.60;32.00;;;;;;4972122;28;47312;-67
2023/07/04 13:36:23;;;;;;;5.78;4.45;;;27.70;32.60;;;;;;4967965;28;45325;-67
2023/07/04 13:38:51;;;;;;;7.97;4.65;;;27.70;32.70;;;;;;4991704;28;45495;-68
2023/07/04 13:41:19;;;;;;;7.43;4.28;;;27.60;32.40;;;;;;4966194;28;45087;-69
2023/07/04 13:43:44;;;;;;;6.15;4.63;;;27.70;32.50;;;;;;4958995;28;46063;-69
2023/07/04 13:46:10;;;;;;;5.65;4.32;;;27.70;32.50;;;;;;4967442;28;44705;-68
2023/07/04 13:48:35;;;;;;;9.40;4.78;;;27.70;32.30;;;;;;4972268;28;46226;-69
2023/07/04 13:51:01;;;;;;;6.70;4.65;;;27.70;32.20;;;;;;4965593;28;45208;-67
2023/07/04 13:53:27;;;;;;;6.25;4.30;;;27.70;32.10;;;;;;4964176;28;47066;-69
2023/07/04 13:55:54;;;;;;;10.90;4.57;;;27.70;32.10;;;;;;4969192;28;45314;-68
2023/07/04 13:58:22;;;;;;;5.80;4.07;;;27.70;32.20;;;;;;4958246;28;45074;-68
2023/07/04 14:00:47;;;;;;;11.00;4.85;;;27.70;32.20;;;;;;4964764;28;45460;-69
2023/07/04 14:03:13;;;;;;;6.45;4.35;;;27.80;32.20;;;;;;4970348;28;46219;-69
2023/07/04 14:05:39;;;;;;;8.57;4.32;;;27.80;32.10;;;;;;4965648;28;45204;-68
2023/07/04 14:08:05;;;;;;;7.57;4.47;;;27.80;31.90;;;;;;4973937;28;46054;-68
2023/07/04 14:10:31;;;;;;;5.68;4.15;;;27.80;31.90;;;;;;4973499;28;45140;-67
2023/07/04 14:12:56;;;;;;;7.93;5.18;;;27.80;31.80;;;;;;4974368;28;45528;-68
2023/07/04 14:15:23;;;;;;;5.38;4.22;;;27.80;31.70;;;;;;4948739;28;45242;-69
2023/07/04 14:17:49;;;;;;;6.13;4.50;;;27.90;31.80;;;;;;4970615;28;45343;-69
2023/07/04 14:20:15;;;;;;;6.82;4.43;;;27.90;31.60;;;;;;4967891;28;44965;-68
2023/07/04 14:22:40;;;;;;;5.57;4.25;;;27.90;31.60;;;;;;4970298;28;45240;-69
2023/07/04 14:25:07;;;;;;;5.45;4.05;;;27.90;31.40;;;;;;4972265;28;45270;-70
2023/07/04 14:27:36;;;;;;;8.05;4.82;;;27.90;31.40;;;;;;4940987;28;45429;-68
2023/07/04 14:30:05;;;;;;;6.40;4.38;;;27.90;31.10;;;;;;4974777;28;45595;-67
2023/07/04 14:32:35;;;;;;;7.32;4.05;;;27.90;31.10;;;;;;4921265;28;47352;-68
2023/07/04 14:35:00;;;;;;;7.10;4.25;;;27.90;31.20;;;;;;4972469;28;45408;-68
2023/07/04 14:37:26;;;;;;;6.65;4.03;;;27.90;31.40;;;;;;4956699;28;45565;-68
2023/07/04 14:39:52;;;;;;;10.15;4.40;;;27.90;31.20;;;;;;4975861;28;45299;-66
2023/07/04 14:42:18;;;;;;;6.90;4.28;;;27.90;31.20;;;;;;4966776;28;46183;-69
2023/07/04 14:44:45;;;;;;;6.25;4.18;;;28.00;31.10;;;;;;4974202;28;45553;-68
2023/07/04 14:47:11;;;;;;;7.60;3.95;;;28.00;30.90;;;;;;4960446;28;44712;-69
2023/07/04 14:49:37;;;;;;;5.35;3.75;;;28.00;30.70;;;;;;4974633;28;45434;-68
2023/07/04 14:52:03;;;;;;;5.15;3.70;;;28.00;30.70;;;;;;4969432;28;45618;-68
2023/07/04 14:54:29;;;;;;;7.68;4.32;;;28.00;30.80;;;;;;4972063;28;45389;-68
2023/07/04 14:56:56;;;;;;;5.00;3.90;;;28.00;30.70;;;;;;4968946;28;45629;-68
2023/07/04 14:59:21;;;;;;;5.45;3.75;;;28.00;30.70;;;;;;4974004;28;45486;-67
2023/07/04 15:01:47;;;;;;;4.72;3.80;;;28.00;30.60;;;;;;4961780;28;45291;-68
2023/07/04 15:04:13;;;;;;;7.13;3.92;;;28.00;30.50;;;;;;4955402;28;45428;-68
2023/07/04 15:06:38;;;;;;;4.10;3.40;;;28.00;30.50;;;;;;4950124;28;45287;-68
2023/07/04 15:09:05;;;;;;;4.72;3.80;;;28.00;30.30;;;;;;4975931;28;44731;-68
2023/07/04 15:11:30;;;;;;;4.60;3.20;;;27.90;30.10;;;;;;4967950;28;45746;-67
2023/07/04 15:13:56;;;;;;;5.90;3.97;;;27.90;30.20;;;;;;4958787;28;45291;-66
2023/07/04 15:16:23;;;;;;;4.90;3.65;;;27.90;30.10;;;;;;4966681;28;46014;-68
2023/07/04 15:18:48;;;;;;;7.38;3.60;;;27.90;30.20;;;;;;4955491;28;45099;-68
2023/07/04 15:21:14;;;;;;;5.63;3.40;;;27.90;30.10;;;;;;4967870;28;46209;-68
2023/07/04 15:23:40;;;;;;;5.97;3.60;;;27.90;30.20;;;;;;4972867;28;44869;-68
2023/07/04 15:26:06;;;;;;;5.40;2.92;;;27.90;30.20;;;;;;4954066;28;45414;-68
2023/07/04 15:28:32;;;;;;;4.90;3.30;;;27.80;30.10;;;;;;4976576;28;45295;-66
2023/07/04 15:30:58;;;;;;;5.00;3.50;;;27.90;30.20;;;;;;4965632;28;46020;-66
2023/07/04 15:33:24;;;;;;;6.80;3.17;;;27.90;30.20;;;;;;4971465;28;44917;-65
2023/07/04 15:35:50;;;;;;;4.68;2.83;;;27.90;30.10;;;;;;4970127;28;45289;-67
2023/07/04 15:38:16;;;;;;;5.88;3.30;;;27.90;30.00;;;;;;4956046;28;45677;-67
2023/07/04 15:40:52;;;;;;;5.30;3.45;;;27.90;30.00;;;;;;4969519;28;45107;-67
2023/07/04 15:43:18;;;;;;;7.32;3.53;;;28.00;29.70;;;;;;4966096;28;45485;-67
2023/07/04 15:45:44;;;;;;;6.72;2.97;;;28.00;30.00;;;;;;4963711;28;46036;-67
2023/07/04 15:48:10;;;;;;;5.30;3.17;;;28.00;30.00;;;;;;4974407;28;46081;-67
2023/07/04 15:50:36;;;;;;;4.28;3.22;;;28.00;30.00;;;;;;4967784;28;45555;-66
2023/07/04 15:53:02;;;;;;;4.00;3.15;;;28.00;30.00;;;;;;4989814;28;45379;-67